Time;durP1;ratioP1;P1;durP2;ratioP2;P2;SDS_P1;SDS_P2;PMS_P1;PMS_P2;Temp;Humidity;BMP_temperature;BMP_pressure;BME280_temperature;BME280_humidity;BME280_pressure;Samples;Min_cycle;Max_cycle;Signal;HPM_P1;HPM_P2
2023/07/20 00:00:39;;;;;;;2.37;2.10;;;18.10;99.90;;;;;;5094347;28;20439;-70
2023/07/20 00:03:16;;;;;;;7.10;2.97;;;18.10;99.90;;;;;;5093839;28;20161;-70
2023/07/20 00:05:42;;;;;;;5.07;1.97;;;18.20;99.90;;;;;;5093376;28;20672;-70
2023/07/20 00:08:08;;;;;;;4.80;1.90;;;18.20;99.90;;;;;;5094042;28;20528;-70
2023/07/20 00:10:33;;;;;;;3.57;2.00;;;18.20;99.90;;;;;;5094191;28;20994;-70
2023/07/20 00:12:59;;;;;;;5.23;2.30;;;18.20;99.90;;;;;;5092098;28;20189;-70
2023/07/20 00:15:24;;;;;;;5.10;2.83;;;18.20;99.90;;;;;;5093720;28;20188;-70
2023/07/20 00:17:50;;;;;;;4.77;2.53;;;18.20;99.90;;;;;;5093882;28;20234;-70
2023/07/20 00:20:15;;;;;;;2.90;1.80;;;18.30;99.90;;;;;;5093965;28;20166;-70
2023/07/20 00:22:41;;;;;;;3.10;2.30;;;18.30;99.90;;;;;;5093993;28;20172;-70
2023/07/20 00:25:07;;;;;;;2.93;2.20;;;18.30;99.90;;;;;;5093663;28;20630;-70
2023/07/20 00:27:32;;;;;;;5.53;2.93;;;18.30;99.90;;;;;;5093740;28;20215;-70
2023/07/20 00:29:58;;;;;;;3.00;2.30;;;18.20;99.90;;;;;;5093573;28;20200;-70
2023/07/20 00:32:23;;;;;;;3.70;2.70;;;18.20;99.90;;;;;;5093736;28;20166;-70
2023/07/20 00:34:49;;;;;;;2.27;2.07;;;18.20;99.90;;;;;;5093596;28;20192;-70
2023/07/20 00:37:14;;;;;;;3.80;2.67;;;18.10;99.90;;;;;;5093395;28;20702;-70
2023/07/20 00:39:40;;;;;;;3.50;2.43;;;18.10;99.90;;;;;;5092340;28;20250;-70
2023/07/20 00:42:06;;;;;;;3.27;2.97;;;18.00;99.90;;;;;;5092327;28;20166;-70
2023/07/20 00:44:31;;;;;;;5.27;2.23;;;18.00;99.90;;;;;;5093566;28;20166;-70
2023/07/20 00:46:57;;;;;;;3.67;2.80;;;17.90;99.90;;;;;;5093154;28;20165;-70
2023/07/20 00:49:23;;;;;;;4.50;2.20;;;17.90;99.90;;;;;;5093248;28;20202;-70
2023/07/20 00:51:50;;;;;;;2.93;2.50;;;17.80;99.90;;;;;;5093383;28;20210;-70
2023/07/20 00:54:16;;;;;;;3.70;2.73;;;17.80;99.90;;;;;;5093290;28;20972;-70
2023/07/20 00:56:42;;;;;;;4.50;2.70;;;17.70;99.90;;;;;;5092883;28;20487;-70
2023/07/20 00:59:07;;;;;;;2.53;2.00;;;17.60;99.90;;;;;;5091837;28;20435;-70
2023/07/20 01:01:33;;;;;;;2.33;2.13;;;17.60;99.90;;;;;;5093213;28;20214;-70
2023/07/20 01:03:58;;;;;;;4.43;2.80;;;17.50;99.90;;;;;;5093152;28;20245;-70
2023/07/20 01:06:36;;;;;;;2.63;2.10;;;17.40;99.90;;;;;;5092697;28;20211;-70
2023/07/20 01:09:40;;;;;;;5.50;2.80;;;17.40;99.90;;;;;;5092242;28;20284;-70
2023/07/20 01:12:16;;;;;;;5.40;2.37;;;17.40;99.90;;;;;;5092967;28;20506;-70
2023/07/20 01:14:42;;;;;;;3.20;2.10;;;17.40;99.90;;;;;;5092984;28;20472;-70
2023/07/20 01:17:07;;;;;;;11.23;2.60;;;17.40;99.90;;;;;;5092715;28;20892;-70
2023/07/20 01:19:33;;;;;;;3.80;3.10;;;17.30;99.90;;;;;;5092778;28;20666;-70
2023/07/20 01:22:35;;;;;;;4.43;2.10;;;17.30;99.90;;;;;;5092774;28;20165;-70
2023/07/20 01:25:30;;;;;;;2.33;2.13;;;17.30;99.90;;;;;;5092593;28;20176;-70
2023/07/20 01:28:35;;;;;;;3.30;2.40;;;17.20;99.90;;;;;;5091405;28;20955;-70
2023/07/20 01:31:22;;;;;;;2.33;2.13;;;17.10;99.90;;;;;;5092784;28;20407;-69
2023/07/20 01:33:50;;;;;;;8.43;2.00;;;17.00;99.90;;;;;;5091315;28;21141;-69
2023/07/20 01:36:17;;;;;;;2.10;1.90;;;16.90;99.90;;;;;;5092193;28;20896;-70
2023/07/20 01:38:44;;;;;;;4.47;2.70;;;16.90;99.90;;;;;;5091936;28;20430;-70
2023/07/20 01:41:10;;;;;;;2.10;1.77;;;16.80;99.90;;;;;;5092482;28;20908;-69
2023/07/20 01:43:36;;;;;;;4.20;2.10;;;16.70;99.90;;;;;;5091420;28;20473;-70
2023/07/20 01:46:01;;;;;;;3.87;2.10;;;16.70;99.90;;;;;;5092143;28;20407;-71
2023/07/20 01:48:27;;;;;;;2.37;2.17;;;16.80;99.90;;;;;;5091022;28;20197;-70
2023/07/20 01:50:53;;;;;;;2.40;2.20;;;16.80;99.90;;;;;;5092405;28;20169;-70
2023/07/20 01:53:20;;;;;;;2.93;2.23;;;16.90;99.90;;;;;;5091059;28;20727;-70
2023/07/20 01:55:46;;;;;;;2.03;1.83;;;16.90;99.90;;;;;;5091819;28;20176;-70
2023/07/20 01:58:11;;;;;;;5.13;3.00;;;16.80;99.90;;;;;;5092193;28;20427;-70
2023/07/20 02:00:37;;;;;;;2.77;2.37;;;16.80;99.90;;;;;;5092303;28;20172;-71
2023/07/20 02:03:03;;;;;;;2.10;1.80;;;16.70;99.90;;;;;;5092106;28;20530;-70
2023/07/20 02:05:28;;;;;;;4.37;2.07;;;16.60;99.90;;;;;;5091884;28;20408;-70
2023/07/20 02:07:54;;;;;;;4.00;2.93;;;16.60;99.90;;;;;;5090405;28;20205;-70
2023/07/20 02:10:20;;;;;;;4.43;2.20;;;16.50;99.90;;;;;;5092334;28;20180;-70
2023/07/20 02:12:45;;;;;;;4.20;3.20;;;16.40;99.90;;;;;;5092108;28;20157;-70
2023/07/20 02:15:13;;;;;;;2.23;1.87;;;16.30;99.90;;;;;;5091824;28;20851;-70
2023/07/20 02:17:40;;;;;;;2.73;1.93;;;16.30;99.90;;;;;;5091981;28;20163;-70
2023/07/20 02:20:08;;;;;;;4.43;4.10;;;16.20;99.90;;;;;;5090725;28;20924;-70
2023/07/20 02:22:34;;;;;;;3.80;2.73;;;16.10;99.90;;;;;;5091987;28;20456;-70
2023/07/20 02:25:00;;;;;;;3.90;2.90;;;16.10;99.90;;;;;;5091693;28;20415;-71
2023/07/20 02:27:25;;;;;;;2.40;2.20;;;16.00;99.90;;;;;;5090719;28;20524;-71
2023/07/20 02:29:51;;;;;;;4.00;2.70;;;16.00;99.90;;;;;;5090519;28;20636;-71
2023/07/20 02:32:16;;;;;;;2.70;2.50;;;15.90;99.90;;;;;;5090628;28;20249;-71
2023/07/20 02:34:42;;;;;;;7.33;3.03;;;15.80;99.90;;;;;;5090635;28;20208;-71
2023/07/20 02:37:07;;;;;;;5.80;2.83;;;15.80;99.90;;;;;;5091651;28;20306;-71
2023/07/20 02:39:33;;;;;;;3.93;2.73;;;15.70;99.90;;;;;;5091905;28;20192;-71
2023/07/20 02:41:58;;;;;;;4.00;2.50;;;15.70;99.90;;;;;;5091848;28;20167;-71
2023/07/20 02:44:24;;;;;;;5.43;3.40;;;15.70;99.90;;;;;;5091866;28;20504;-71
2023/07/20 02:46:49;;;;;;;4.43;3.07;;;15.70;99.90;;;;;;5091585;28;20646;-71
2023/07/20 02:49:16;;;;;;;3.17;2.40;;;15.70;99.90;;;;;;5091636;28;20208;-70
2023/07/20 02:51:41;;;;;;;7.57;3.63;;;15.70;99.90;;;;;;5094383;28;20172;-70
2023/07/20 02:54:08;;;;;;;3.80;3.30;;;15.70;99.90;;;;;;5095732;28;20396;-71
2023/07/20 02:56:33;;;;;;;3.27;2.80;;;15.70;99.90;;;;;;5093898;28;20169;-70
2023/07/20 02:58:59;;;;;;;4.03;3.00;;;15.70;99.90;;;;;;5095141;28;20426;-70
2023/07/20 03:01:27;;;;;;;7.53;2.40;;;15.70;99.90;;;;;;5095505;28;20580;-71
2023/07/20 03:03:52;;;;;;;6.20;3.40;;;15.80;99.90;;;;;;5095422;28;20529;-71
2023/07/20 03:06:18;;;;;;;6.17;2.37;;;15.90;99.90;;;;;;5095186;28;20404;-71
2023/07/20 03:08:47;;;;;;;3.40;2.03;;;15.90;99.90;;;;;;5095032;28;20244;-71
2023/07/20 03:11:14;;;;;;;3.33;2.57;;;16.00;99.90;;;;;;5095153;28;20154;-71
2023/07/20 03:13:41;;;;;;;3.73;2.80;;;16.00;99.90;;;;;;5095262;28;20456;-71
2023/07/20 03:16:10;;;;;;;4.00;2.80;;;16.00;99.90;;;;;;5094979;28;20396;-71
2023/07/20 03:18:39;;;;;;;6.20;2.30;;;16.10;99.90;;;;;;5095117;28;20423;-71
2023/07/20 03:21:06;;;;;;;2.70;2.47;;;16.10;99.90;;;;;;5095144;28;20399;-70
2023/07/20 03:23:31;;;;;;;6.13;2.30;;;16.20;99.90;;;;;;5095080;28;20734;-71
2023/07/20 03:25:57;;;;;;;4.70;2.07;;;16.30;99.90;;;;;;5094849;28;20419;-71
2023/07/20 03:28:22;;;;;;;4.70;2.67;;;16.40;99.90;;;;;;5094861;28;20203;-70
2023/07/20 03:30:58;;;;;;;2.83;2.27;;;16.30;99.90;;;;;;5094975;28;20527;-71
2023/07/20 03:33:28;;;;;;;5.30;3.00;;;16.40;99.90;;;;;;5093617;28;20196;-70
2023/07/20 03:35:54;;;;;;;3.20;2.00;;;16.30;99.90;;;;;;5094645;28;20396;-71
2023/07/20 03:38:21;;;;;;;4.53;2.37;;;16.40;99.90;;;;;;5094731;28;20419;-70
2023/07/20 03:40:54;;;;;;;3.47;2.37;;;16.40;99.90;;;;;;5093640;28;20400;-71
2023/07/20 03:43:21;;;;;;;8.00;2.70;;;16.40;99.90;;;;;;5094759;28;20504;-71
2023/07/20 03:45:48;;;;;;;3.17;2.80;;;16.40;99.90;;;;;;5094353;28;20408;-71
2023/07/20 03:48:15;;;;;;;5.47;2.90;;;16.50;99.90;;;;;;5093116;28;20451;-70
2023/07/20 03:50:41;;;;;;;2.80;2.53;;;16.40;99.90;;;;;;5094634;28;20433;-71
2023/07/20 03:53:06;;;;;;;9.53;2.70;;;16.40;99.90;;;;;;5094522;28;20395;-70
2023/07/20 03:55:32;;;;;;;3.50;2.27;;;16.40;99.90;;;;;;5094222;28;20634;-71
2023/07/20 03:57:57;;;;;;;2.43;1.77;;;16.40;99.90;;;;;;5094403;28;20182;-71
2023/07/20 04:00:23;;;;;;;2.90;2.60;;;16.50;99.90;;;;;;5094312;28;20223;-70
2023/07/20 04:02:49;;;;;;;3.30;2.80;;;16.60;99.90;;;;;;5093991;28;20702;-70
2023/07/20 04:05:14;;;;;;;2.77;2.37;;;16.60;99.90;;;;;;5094030;28;20170;-71
2023/07/20 04:07:40;;;;;;;3.00;2.50;;;16.70;99.90;;;;;;5093879;28;20181;-71
2023/07/20 04:10:06;;;;;;;6.80;2.57;;;16.80;99.90;;;;;;5094245;28;20261;-71
2023/07/20 04:12:31;;;;;;;6.10;2.40;;;16.90;99.90;;;;;;5094179;28;20740;-71
2023/07/20 04:14:57;;;;;;;3.43;3.00;;;17.00;99.90;;;;;;5092774;28;20515;-71
2023/07/20 04:17:22;;;;;;;4.23;2.10;;;17.10;99.90;;;;;;5092751;28;20189;-71
2023/07/20 04:19:48;;;;;;;4.87;3.10;;;17.10;99.90;;;;;;5094166;28;20228;-71
2023/07/20 04:22:15;;;;;;;5.40;3.03;;;17.20;99.90;;;;;;5094023;28;20674;-71
2023/07/20 04:24:43;;;;;;;4.40;2.90;;;17.30;99.90;;;;;;5094133;28;20650;-71
2023/07/20 04:27:09;;;;;;;2.90;2.40;;;17.40;99.90;;;;;;5092606;28;20913;-70
2023/07/20 04:29:34;;;;;;;3.67;3.00;;;17.40;99.90;;;;;;5093697;28;20449;-70
2023/07/20 04:32:00;;;;;;;5.43;2.37;;;17.50;99.90;;;;;;5093824;28;20161;-71
2023/07/20 04:34:26;;;;;;;3.43;2.60;;;17.50;99.90;;;;;;5093809;28;20185;-70
2023/07/20 04:36:51;;;;;;;3.60;2.70;;;17.60;99.90;;;;;;5093455;28;20511;-71
2023/07/20 04:39:17;;;;;;;5.13;2.63;;;17.60;99.90;;;;;;5093854;28;20189;-72
2023/07/20 04:41:42;;;;;;;3.20;2.63;;;17.70;99.90;;;;;;5093624;28;20533;-71
2023/07/20 04:44:08;;;;;;;5.40;3.10;;;17.70;99.90;;;;;;5093513;28;20243;-70
2023/07/20 04:46:33;;;;;;;4.10;3.53;;;17.80;99.90;;;;;;5093258;28;20172;-70
2023/07/20 04:48:59;;;;;;;6.83;3.17;;;17.80;99.90;;;;;;5093295;28;20306;-71
2023/07/20 04:51:24;;;;;;;4.73;3.17;;;17.80;99.90;;;;;;5093426;28;20157;-69
2023/07/20 04:53:50;;;;;;;6.07;3.17;;;17.80;99.90;;;;;;5093506;28;20162;-72
2023/07/20 04:56:15;;;;;;;4.87;3.07;;;17.90;99.90;;;;;;5093129;28;20242;-72
2023/07/20 04:58:41;;;;;;;4.10;3.03;;;17.90;99.90;;;;;;5093166;28;20193;-71
2023/07/20 05:01:07;;;;;;;4.23;3.20;;;17.90;99.90;;;;;;5093274;28;20528;-70
2023/07/20 05:03:33;;;;;;;4.10;3.23;;;18.00;99.90;;;;;;5091744;28;20166;-70
2023/07/20 05:05:58;;;;;;;3.43;3.13;;;18.00;99.90;;;;;;5092890;28;20422;-70
2023/07/20 05:08:24;;;;;;;3.80;3.10;;;18.10;99.90;;;;;;5092671;28;20198;-71
2023/07/20 05:10:50;;;;;;;9.10;3.57;;;18.10;99.90;;;;;;5093086;28;20176;-72
2023/07/20 05:13:16;;;;;;;6.40;2.90;;;18.20;99.90;;;;;;5092302;28;20396;-71
2023/07/20 05:15:42;;;;;;;7.47;2.93;;;18.30;99.90;;;;;;5091610;28;20492;-72
2023/07/20 05:18:08;;;;;;;3.60;2.60;;;18.40;99.90;;;;;;5092921;28;20532;-71
2023/07/20 05:20:34;;;;;;;3.77;3.13;;;18.50;99.90;;;;;;5092897;28;20639;-71
2023/07/20 05:23:01;;;;;;;4.97;3.10;;;18.70;99.90;;;;;;5092951;28;20162;-71
2023/07/20 05:25:26;;;;;;;3.67;2.90;;;18.70;99.90;;;;;;5092557;28;20399;-70
2023/07/20 05:27:52;;;;;;;8.43;3.10;;;18.80;99.90;;;;;;5091473;28;20534;-71
2023/07/20 05:30:18;;;;;;;10.63;3.60;;;18.90;99.90;;;;;;5092730;28;20169;-70
2023/07/20 05:32:47;;;;;;;6.87;3.50;;;19.00;99.90;;;;;;5092722;28;20173;-71
2023/07/20 05:35:13;;;;;;;6.40;3.80;;;19.10;99.90;;;;;;5092405;28;20396;-71
2023/07/20 05:37:39;;;;;;;4.97;3.40;;;19.20;99.90;;;;;;5092552;28;20477;-70
2023/07/20 05:40:06;;;;;;;8.30;4.27;;;19.20;99.90;;;;;;5091277;28;20490;-71
2023/07/20 05:42:31;;;;;;;4.70;2.77;;;19.20;99.90;;;;;;5092543;28;20207;-71
2023/07/20 05:44:57;;;;;;;4.83;3.47;;;19.20;99.90;;;;;;5092319;28;20799;-71
2023/07/20 05:47:22;;;;;;;3.90;3.43;;;19.10;99.90;;;;;;5092420;28;20226;-73
2023/07/20 05:49:48;;;;;;;4.27;3.20;;;19.00;99.90;;;;;;5092374;28;20205;-72
2023/07/20 05:52:14;;;;;;;6.00;3.50;;;19.00;99.90;;;;;;5092426;28;20759;-72
2023/07/20 05:54:39;;;;;;;3.90;2.83;;;18.90;99.90;;;;;;5092279;28;20174;-72
2023/07/20 05:57:05;;;;;;;6.20;4.37;;;18.90;99.90;;;;;;5091987;28;20165;-72
2023/07/20 05:59:31;;;;;;;6.20;4.10;;;18.90;99.90;;;;;;5092301;28;20185;-70
2023/07/20 06:01:57;;;;;;;5.30;4.23;;;18.90;99.90;;;;;;5092259;28;20166;-71
2023/07/20 06:04:22;;;;;;;13.50;4.40;;;19.00;99.90;;;;;;5092169;28;20788;-70
2023/07/20 06:06:48;;;;;;;7.13;5.47;;;19.00;99.90;;;;;;5091898;28;20204;-71
2023/07/20 06:09:14;;;;;;;10.30;5.50;;;19.20;99.90;;;;;;5090557;28;20215;-71
2023/07/20 06:11:39;;;;;;;6.67;5.40;;;19.50;99.90;;;;;;5092095;28;20189;-71
2023/07/20 06:14:05;;;;;;;11.23;5.40;;;20.00;99.90;;;;;;5092177;28;20634;-71
2023/07/20 06:16:30;;;;;;;7.43;5.30;;;20.70;99.90;;;;;;5091848;28;20171;-70
2023/07/20 06:18:56;;;;;;;6.17;5.57;;;21.20;99.90;;;;;;5092033;28;20193;-70
2023/07/20 06:21:22;;;;;;;6.13;4.63;;;21.70;99.90;;;;;;5092108;28;20157;-70
2023/07/20 06:23:48;;;;;;;8.10;5.77;;;21.90;99.90;;;;;;5092049;28;20584;-71
2023/07/20 06:26:13;;;;;;;7.90;5.20;;;22.10;99.90;;;;;;5095367;28;20248;-71
2023/07/20 06:28:39;;;;;;;5.43;4.30;;;22.20;99.90;;;;;;5094747;28;20236;-71
2023/07/20 06:31:04;;;;;;;8.93;4.47;;;22.20;99.90;;;;;;5096132;28;20193;-71
2023/07/20 06:33:30;;;;;;;5.70;4.70;;;22.00;99.90;;;;;;5095986;28;20162;-71
2023/07/20 06:35:57;;;;;;;4.50;3.83;;;21.80;99.90;;;;;;5095770;28;20162;-71
2023/07/20 06:38:23;;;;;;;7.43;4.50;;;21.70;99.90;;;;;;5095646;28;20224;-71
2023/07/20 06:40:49;;;;;;;4.93;4.43;;;21.60;99.90;;;;;;5095878;28;20833;-70
2023/07/20 06:43:15;;;;;;;4.93;4.53;;;21.50;99.90;;;;;;5095975;28;20634;-72
2023/07/20 06:45:41;;;;;;;5.67;5.13;;;21.50;99.90;;;;;;5095749;28;20439;-70
2023/07/20 06:48:07;;;;;;;7.23;5.23;;;21.40;99.90;;;;;;5095505;28;20473;-70
2023/07/20 06:50:33;;;;;;;9.67;5.57;;;21.60;99.90;;;;;;5095842;28;20255;-71
2023/07/20 06:52:59;;;;;;;7.40;5.70;;;21.80;99.90;;;;;;5095730;28;20162;-70
2023/07/20 06:55:25;;;;;;;5.87;5.43;;;21.90;99.90;;;;;;5093900;28;20283;-70
2023/07/20 06:57:51;;;;;;;9.83;5.40;;;22.00;99.90;;;;;;5095562;28;20427;-71
2023/07/20 07:00:17;;;;;;;6.67;4.80;;;22.10;99.90;;;;;;5095418;28;20403;-70
2023/07/20 07:02:43;;;;;;;6.37;4.80;;;22.20;99.90;;;;;;5095491;28;20636;-70
2023/07/20 07:05:09;;;;;;;5.83;5.23;;;22.20;99.90;;;;;;5095185;28;20303;-71
2023/07/20 07:07:35;;;;;;;5.40;4.87;;;22.50;99.90;;;;;;5095134;28;20185;-71
2023/07/20 07:10:04;;;;;;;5.70;4.07;;;22.90;99.90;;;;;;5095063;28;20189;-72
2023/07/20 07:12:30;;;;;;;4.60;3.47;;;23.20;99.90;;;;;;5095313;28;20403;-72
2023/07/20 07:14:55;;;;;;;7.27;4.57;;;23.40;99.90;;;;;;5095099;28;20411;-72
2023/07/20 07:17:21;;;;;;;4.87;4.20;;;23.60;99.90;;;;;;5095150;28;20215;-71
2023/07/20 07:19:46;;;;;;;7.50;4.03;;;23.80;99.90;;;;;;5095083;28;20201;-71
2023/07/20 07:22:12;;;;;;;4.77;4.03;;;23.80;99.90;;;;;;5095041;28;20173;-71
2023/07/20 07:24:37;;;;;;;4.03;3.63;;;23.90;99.90;;;;;;5095055;28;20248;-72
2023/07/20 07:27:03;;;;;;;6.13;3.60;;;24.20;99.90;;;;;;5094786;28;20169;-72
2023/07/20 07:29:29;;;;;;;4.90;4.50;;;24.70;99.90;;;;;;5094906;28;20197;-72
2023/07/20 07:31:55;;;;;;;10.30;7.43;;;25.30;99.90;;;;;;5094615;28;20456;-72
2023/07/20 07:34:20;;;;;;;5.63;3.87;;;25.60;99.90;;;;;;5094998;28;20653;-72
2023/07/20 07:36:47;;;;;;;4.00;3.70;;;25.60;99.90;;;;;;5092524;28;20169;-72
2023/07/20 07:39:12;;;;;;;3.80;3.40;;;25.20;99.90;;;;;;5094746;28;20705;-72
2023/07/20 07:41:38;;;;;;;4.13;3.70;;;24.80;99.90;;;;;;5094831;28;20532;-72
2023/07/20 07:44:03;;;;;;;4.70;3.67;;;24.50;99.90;;;;;;5094791;28;20215;-72
2023/07/20 07:46:29;;;;;;;4.07;3.70;;;24.70;99.90;;;;;;5094256;28;20180;-72
2023/07/20 07:48:54;;;;;;;4.43;3.10;;;24.70;99.90;;;;;;5094553;28;20216;-71
2023/07/20 07:51:20;;;;;;;5.60;3.70;;;24.60;99.90;;;;;;5094632;28;20172;-72
2023/07/20 07:53:46;;;;;;;5.17;3.33;;;24.70;99.90;;;;;;5094598;28;20535;-72
2023/07/20 07:56:12;;;;;;;4.63;3.73;;;26.40;99.90;;;;;;5094284;28;20162;-72
2023/07/20 07:58:37;;;;;;;3.77;3.47;;;28.70;99.90;;;;;;5094417;28;20481;-74
2023/07/20 08:01:04;;;;;;;2.67;2.30;;;31.70;90.70;;;;;;5094459;28;20707;-73
2023/07/20 08:03:29;;;;;;;2.70;2.40;;;34.70;65.70;;;;;;5094376;28;20243;-73
2023/07/20 08:05:55;;;;;;;3.30;2.53;;;37.30;52.60;;;;;;5094094;28;20408;-73
2023/07/20 08:08:21;;;;;;;3.00;2.50;;;39.70;44.70;;;;;;5093981;28;20213;-72
2023/07/20 08:10:47;;;;;;;3.40;2.60;;;41.80;39.20;;;;;;5094494;28;20375;-74
2023/07/20 08:13:13;;;;;;;4.40;3.70;;;43.00;34.80;;;;;;5094195;28;20378;-73
2023/07/20 08:15:39;;;;;;;3.20;2.90;;;42.40;30.90;;;;;;5093936;28;20766;-71
2023/07/20 08:18:05;;;;;;;2.73;2.47;;;40.70;31.40;;;;;;5092809;28;20220;-73
2023/07/20 08:20:32;;;;;;;2.57;2.37;;;38.60;32.10;;;;;;5094047;28;20255;-73
2023/07/20 08:22:59;;;;;;;5.50;2.40;;;36.80;33.80;;;;;;5092753;28;20382;-74
2023/07/20 08:25:25;;;;;;;4.30;3.90;;;35.70;36.60;;;;;;5093746;28;20439;-73
2023/07/20 08:27:51;;;;;;;2.43;2.23;;;36.60;37.30;;;;;;5093834;28;20498;-73
2023/07/20 08:30:17;;;;;;;2.20;2.00;;;38.20;36.10;;;;;;5093772;28;20280;-73
2023/07/20 08:32:42;;;;;;;2.93;2.70;;;40.10;33.60;;;;;;5093589;28;20170;-73
2023/07/20 08:35:08;;;;;;;3.23;2.43;;;42.00;32.60;;;;;;5093430;28;20404;-74
2023/07/20 08:37:34;;;;;;;2.93;2.73;;;43.70;31.10;;;;;;5093661;28;20307;-74
2023/07/20 08:39:59;;;;;;;2.80;2.60;;;45.30;30.00;;;;;;5093450;28;20174;-72
2023/07/20 08:42:25;;;;;;;4.23;3.83;;;46.70;28.50;;;;;;5094055;28;20165;-73
2023/07/20 08:44:53;;;;;;;3.07;2.87;;;48.20;27.60;;;;;;5093544;28;20654;-70
2023/07/20 08:47:20;;;;;;;2.20;2.10;;;49.40;26.50;;;;;;5091823;28;20411;-71
2023/07/20 08:49:48;;;;;;;2.93;2.43;;;50.00;24.90;;;;;;5092426;28;20812;-71
2023/07/20 08:52:14;;;;;;;5.60;2.50;;;50.50;24.20;;;;;;5093392;28;20406;-67
2023/07/20 08:54:40;;;;;;;3.10;2.10;;;49.90;23.20;;;;;;5093309;28;20843;-67
2023/07/20 08:57:07;;;;;;;4.40;2.10;;;48.90;22.90;;;;;;5093454;28;20166;-69
2023/07/20 08:59:36;;;;;;;2.73;2.40;;;48.40;23.40;;;;;;5093293;28;20185;-67
2023/07/20 09:02:04;;;;;;;2.30;2.10;;;48.40;23.60;;;;;;5092959;28;20402;-68
2023/07/20 09:04:29;;;;;;;3.47;2.60;;;48.10;23.50;;;;;;5093032;28;20374;-67
2023/07/20 09:06:56;;;;;;;1.80;1.70;;;47.20;23.40;;;;;;5092623;28;20952;-68
2023/07/20 09:09:22;;;;;;;1.90;1.80;;;45.80;24.00;;;;;;5092733;28;20678;-67
2023/07/20 09:11:49;;;;;;;2.17;1.97;;;46.00;24.70;;;;;;5091522;28;20390;-67
2023/07/20 09:14:15;;;;;;;2.50;1.80;;;46.20;23.30;;;;;;5092970;28;20200;-68
2023/07/20 09:16:54;;;;;;;2.63;1.73;;;47.10;23.70;;;;;;5092408;28;20442;-67
2023/07/20 09:19:20;;;;;;;1.87;1.77;;;48.80;23.60;;;;;;5092719;28;20288;-67
2023/07/20 09:21:47;;;;;;;2.00;1.90;;;48.60;22.50;;;;;;5092529;28;20435;-68
2023/07/20 09:24:13;;;;;;;2.40;1.90;;;47.60;22.70;;;;;;5092732;28;20162;-67
2023/07/20 09:26:45;;;;;;;2.43;2.23;;;46.50;23.10;;;;;;5092451;28;20392;-67
2023/07/20 09:29:11;;;;;;;2.20;1.60;;;45.10;23.60;;;;;;5092395;28;20821;-67
2023/07/20 09:31:38;;;;;;;1.80;1.70;;;43.40;24.10;;;;;;5092537;28;20526;-69
2023/07/20 09:34:04;;;;;;;1.80;1.70;;;42.10;25.30;;;;;;5092599;28;20370;-69
2023/07/20 09:36:34;;;;;;;1.80;1.70;;;41.50;26.30;;;;;;5092206;28;20371;-70
2023/07/20 09:39:00;;;;;;;1.63;1.50;;;40.60;26.10;;;;;;5092414;28;20419;-70
2023/07/20 09:41:26;;;;;;;2.20;1.83;;;40.30;27.20;;;;;;5092309;28;20378;-68
2023/07/20 09:43:53;;;;;;;2.00;1.80;;;42.00;27.10;;;;;;5092202;28;20162;-67
2023/07/20 09:46:20;;;;;;;1.87;1.50;;;43.70;24.60;;;;;;5092082;28;20414;-67
2023/07/20 09:48:54;;;;;;;3.00;2.80;;;43.70;24.60;;;;;;5092155;28;20508;-67
2023/07/20 09:51:23;;;;;;;1.67;1.57;;;42.70;24.50;;;;;;5092230;28;20882;-68
2023/07/20 09:53:51;;;;;;;4.00;1.97;;;41.70;25.20;;;;;;5092390;28;20838;-67
2023/07/20 09:56:19;;;;;;;3.80;1.70;;;40.80;25.50;;;;;;5092092;28;20858;-67
2023/07/20 09:58:46;;;;;;;4.30;1.83;;;39.60;25.70;;;;;;5092097;28;21068;-67
2023/07/20 10:01:14;;;;;;;2.17;1.97;;;38.70;27.30;;;;;;5092053;28;20407;-70
2023/07/20 10:03:44;;;;;;;2.10;2.00;;;39.50;28.50;;;;;;5092184;28;20402;-67
2023/07/20 10:06:12;;;;;;;3.30;2.50;;;40.70;27.60;;;;;;5091913;28;20446;-68
2023/07/20 10:08:42;;;;;;;7.37;6.40;;;40.30;26.60;;;;;;5091973;28;20981;-68
2023/07/20 10:11:12;;;;;;;2.30;2.10;;;39.50;26.80;;;;;;5091898;28;20398;-69
2023/07/20 10:13:38;;;;;;;1.97;1.50;;;39.10;27.80;;;;;;5091886;28;20366;-67
2023/07/20 10:16:10;;;;;;;2.67;1.90;;;39.80;27.70;;;;;;5091832;28;20378;-68
2023/07/20 10:18:50;;;;;;;2.27;1.60;;;40.00;27.40;;;;;;5092016;28;20423;-68
2023/07/20 10:21:22;;;;;;;2.00;1.90;;;40.00;27.40;;;;;;5092031;28;20486;-68
2023/07/20 10:23:48;;;;;;;2.17;1.90;;;39.30;26.20;;;;;;5091787;28;20382;-67
2023/07/20 10:26:14;;;;;;;1.50;1.40;;;38.40;27.40;;;;;;5091693;28;20473;-68
2023/07/20 10:28:40;;;;;;;1.67;1.53;;;37.50;28.20;;;;;;5091810;28;20228;-68
2023/07/20 10:31:09;;;;;;;2.27;1.67;;;36.60;28.70;;;;;;5091646;28;20169;-68
2023/07/20 10:33:36;;;;;;;1.80;1.70;;;35.70;29.30;;;;;;5091944;28;20400;-68
2023/07/20 10:36:05;;;;;;;1.90;1.27;;;35.60;30.50;;;;;;5091556;28;20447;-68
2023/07/20 10:38:45;;;;;;;1.93;1.53;;;36.30;30.50;;;;;;5091818;28;20404;-68
2023/07/20 10:41:21;;;;;;;2.60;1.47;;;38.50;29.70;;;;;;5091895;28;20374;-68
2023/07/20 10:43:48;;;;;;;1.70;1.50;;;41.20;28.00;;;;;;5091858;28;20403;-68
2023/07/20 10:46:14;;;;;;;2.17;1.80;;;44.00;27.00;;;;;;5091611;28;20456;-68
2023/07/20 10:49:02;;;;;;;2.80;1.40;;;46.40;24.60;;;;;;5091642;28;21111;-68
2023/07/20 10:51:28;;;;;;;1.53;1.43;;;46.40;23.00;;;;;;5091792;28;20158;-69
2023/07/20 10:53:58;;;;;;;2.10;1.90;;;45.40;22.80;;;;;;5090735;28;20543;-68
2023/07/20 10:56:27;;;;;;;1.40;1.30;;;44.40;23.30;;;;;;5089252;28;20731;-69
2023/07/20 10:59:00;;;;;;;1.50;1.40;;;43.80;24.10;;;;;;5098967;28;20430;-69
2023/07/20 11:01:30;;;;;;;1.90;1.80;;;43.60;24.10;;;;;;5111933;28;20409;-70
2023/07/20 11:04:02;;;;;;;1.63;1.53;;;43.30;23.50;;;;;;5111874;28;20941;-69
2023/07/20 11:06:27;;;;;;;1.30;1.20;;;42.40;24.00;;;;;;5111498;28;20409;-69
2023/07/20 11:09:10;;;;;;;3.30;1.50;;;41.20;24.70;;;;;;5093362;28;20480;-69
2023/07/20 11:11:38;;;;;;;1.60;1.50;;;40.00;25.40;;;;;;5090981;28;20170;-69
2023/07/20 11:14:06;;;;;;;1.83;1.60;;;39.00;26.40;;;;;;5095291;28;20399;-69
2023/07/20 11:16:38;;;;;;;3.20;1.80;;;39.30;27.10;;;;;;5094950;28;20452;-69
2023/07/20 11:19:05;;;;;;;1.63;1.53;;;40.40;26.80;;;;;;5095069;28;20950;-69
2023/07/20 11:21:37;;;;;;;2.33;1.70;;;42.50;26.60;;;;;;5095142;28;20399;-70
2023/07/20 11:24:04;;;;;;;1.83;1.57;;;45.00;25.70;;;;;;5095080;28;20468;-69
2023/07/20 11:26:30;;;;;;;2.53;2.30;;;47.10;24.10;;;;;;5094835;28;20370;-69
2023/07/20 11:28:55;;;;;;;3.00;2.80;;;47.60;22.60;;;;;;5094732;28;20432;-69
2023/07/20 11:31:21;;;;;;;2.60;2.07;;;47.00;21.60;;;;;;5094992;28;20248;-69
2023/07/20 11:33:46;;;;;;;1.97;1.80;;;45.70;21.50;;;;;;5095132;28;20173;-69
2023/07/20 11:36:13;;;;;;;1.63;1.53;;;44.50;22.20;;;;;;5094680;28;20165;-69
2023/07/20 11:38:42;;;;;;;1.63;1.53;;;43.30;22.60;;;;;;5094895;28;20264;-68
2023/07/20 11:41:08;;;;;;;1.67;1.57;;;41.80;23.40;;;;;;5094924;28;20457;-68
2023/07/20 11:43:34;;;;;;;2.90;1.40;;;40.20;23.90;;;;;;5094752;28;20374;-68
2023/07/20 11:46:00;;;;;;;1.50;1.40;;;38.80;25.10;;;;;;5094820;28;20504;-68
2023/07/20 11:48:26;;;;;;;1.47;1.20;;;37.40;26.30;;;;;;5094531;28;20200;-68
2023/07/20 11:50:51;;;;;;;2.67;1.40;;;36.10;27.50;;;;;;5094573;28;20395;-69
2023/07/20 11:53:17;;;;;;;1.70;1.37;;;35.00;28.30;;;;;;5094682;28;20173;-68
2023/07/20 11:55:45;;;;;;;1.13;1.03;;;33.80;29.40;;;;;;5094305;28;20643;-68
2023/07/20 11:58:10;;;;;;;1.67;1.57;;;32.90;30.10;;;;;;5094461;28;20190;-68
2023/07/20 12:00:41;;;;;;;1.40;1.30;;;32.10;31.30;;;;;;5094562;28;20926;-70
2023/07/20 12:03:07;;;;;;;2.03;1.40;;;31.30;32.60;;;;;;5094519;28;20173;-69
2023/07/20 12:05:33;;;;;;;1.33;1.13;;;30.60;33.30;;;;;;5094113;28;20767;-68
2023/07/20 12:07:59;;;;;;;1.73;1.37;;;29.90;33.80;;;;;;5094104;28;20443;-68
2023/07/20 12:10:28;;;;;;;1.47;1.30;;;29.50;34.70;;;;;;5094252;28;20462;-70
2023/07/20 12:12:54;;;;;;;1.73;1.50;;;29.00;35.10;;;;;;5094080;28;20173;-69
2023/07/20 12:15:22;;;;;;;3.00;1.57;;;28.60;35.80;;;;;;5094031;28;21110;-68
2023/07/20 12:17:52;;;;;;;2.00;1.83;;;28.30;36.40;;;;;;5093672;28;20162;-68
2023/07/20 12:20:36;;;;;;;2.23;1.70;;;28.20;37.20;;;;;;5093883;28;20399;-69
2023/07/20 12:23:19;;;;;;;1.50;1.40;;;28.30;37.70;;;;;;5093701;28;20396;-69
2023/07/20 12:25:47;;;;;;;1.57;1.47;;;28.50;37.90;;;;;;5093712;28;20821;-68
2023/07/20 12:28:15;;;;;;;3.50;1.30;;;28.60;37.80;;;;;;5092701;28;20435;-68
2023/07/20 12:30:42;;;;;;;4.20;3.50;;;28.80;38.20;;;;;;5092339;28;20411;-68
2023/07/20 12:33:08;;;;;;;2.33;2.10;;;29.20;38.10;;;;;;5093613;28;20434;-69
2023/07/20 12:35:34;;;;;;;1.57;1.40;;;30.00;37.80;;;;;;5093494;28;20399;-68
2023/07/20 12:38:00;;;;;;;3.33;1.40;;;32.10;37.10;;;;;;5093505;28;20515;-69
2023/07/20 12:40:25;;;;;;;2.07;1.33;;;33.00;34.70;;;;;;5093475;28;20180;-68
2023/07/20 12:42:51;;;;;;;1.60;1.50;;;33.20;32.90;;;;;;5093581;28;20907;-69
2023/07/20 12:45:17;;;;;;;2.20;1.30;;;33.20;32.30;;;;;;5093218;28;20166;-69